Time;durP1;ratioP1;P1;durP2;ratioP2;P2;SDS_P1;SDS_P2;PMS_P1;PMS_P2;Temp;Humidity;BMP_temperature;BMP_pressure;BME280_temperature;BME280_humidity;BME280_pressure;Samples;Min_cycle;Max_cycle;Signal;HPM_P1;HPM_P2
2022/05/12 00:00:43;;;;;;;4.45;2.25;;;;;;;;;;4987076;28;20068;-76
2022/05/12 00:03:09;;;;;;;6.80;2.30;;;;;;;;;;4985445;28;20046;-76
2022/05/12 00:05:34;;;;;;;3.55;2.50;;;;;;;;;;4986144;28;20081;-75
2022/05/12 00:08:00;;;;;;;7.47;2.47;;;;;;;;;;4984819;28;20034;-74
2022/05/12 00:10:26;;;;;;;5.30;2.28;;;;;;;;;;4983244;28;20046;-75
2022/05/12 00:12:53;;;;;;;5.43;2.17;;;;;;;;;;4987704;28;20121;-72
2022/05/12 00:15:26;;;;;;;4.80;2.58;;;;;;;;;;4990596;28;20035;-75
2022/05/12 00:17:51;;;;;;;5.68;2.58;;;;;;;;;;4987563;28;20038;-74
2022/05/12 00:20:20;;;;;;;3.38;2.28;;;;;;;;;;4989902;28;20336;-75
2022/05/12 00:22:46;;;;;;;6.57;2.50;;;;;;;;;;4989247;28;20120;-77
2022/05/12 00:25:18;;;;;;;6.00;3.40;;;;;;;;;;4988619;28;20026;-74
2022/05/12 00:27:44;;;;;;;10.00;2.72;;;;;;;;;;4987653;28;20031;-74
2022/05/12 00:30:11;;;;;;;6.70;2.50;;;;;;;;;;4989032;28;20041;-75
2022/05/12 00:32:42;;;;;;;8.45;2.20;;;;;;;;;;4989476;28;20106;-75
2022/05/12 00:35:10;;;;;;;3.97;2.33;;;;;;;;;;4989813;28;20411;-76
2022/05/12 00:37:36;;;;;;;7.13;2.60;;;;;;;;;;4986594;28;20050;-75
2022/05/12 00:40:02;;;;;;;5.45;2.20;;;;;;;;;;4988779;28;20034;-76
2022/05/12 00:42:28;;;;;;;4.78;2.30;;;;;;;;;;4990268;28;20042;-75
2022/05/12 00:44:53;;;;;;;5.22;2.70;;;;;;;;;;4989680;28;20085;-75
2022/05/12 00:47:18;;;;;;;9.60;2.60;;;;;;;;;;4988559;28;20042;-76
2022/05/12 00:49:46;;;;;;;3.95;2.08;;;;;;;;;;4986823;28;20039;-75
2022/05/12 00:52:16;;;;;;;3.55;1.98;;;;;;;;;;4988135;28;20045;-74
2022/05/12 00:54:47;;;;;;;7.05;2.10;;;;;;;;;;4988271;28;20034;-76
2022/05/12 00:57:24;;;;;;;2.65;1.98;;;;;;;;;;4989945;28;20125;-73
2022/05/12 00:59:50;;;;;;;10.30;2.50;;;;;;;;;;4989277;28;20030;-75
2022/05/12 01:02:18;;;;;;;6.32;2.22;;;;;;;;;;4991031;28;20080;-75
2022/05/12 01:04:45;;;;;;;5.18;2.20;;;;;;;;;;4991529;28;20445;-73
2022/05/12 01:07:10;;;;;;;3.72;2.00;;;;;;;;;;4990367;28;20033;-73
2022/05/12 01:09:36;;;;;;;9.70;2.58;;;;;;;;;;4990521;28;20034;-76
2022/05/12 01:12:02;;;;;;;8.98;2.08;;;;;;;;;;4990076;28;20046;-75
2022/05/12 01:14:28;;;;;;;5.20;2.13;;;;;;;;;;4988019;28;20042;-76
2022/05/12 01:16:57;;;;;;;2.42;1.92;;;;;;;;;;4988790;28;20030;-75
2022/05/12 01:19:34;;;;;;;5.15;2.10;;;;;;;;;;4988899;28;20104;-75
2022/05/12 01:22:01;;;;;;;3.90;1.58;;;;;;;;;;4989742;28;20035;-75
2022/05/12 01:24:32;;;;;;;1.83;1.52;;;;;;;;;;4986371;28;20506;-75
2022/05/12 01:27:18;;;;;;;3.10;1.92;;;;;;;;;;4986138;28;20454;-75
2022/05/12 01:29:43;;;;;;;3.42;2.00;;;;;;;;;;4990264;28;20033;-75
2022/05/12 01:32:09;;;;;;;2.67;1.98;;;;;;;;;;4989396;28;20475;-75
2022/05/12 01:34:35;;;;;;;3.13;1.85;;;;;;;;;;4987289;28;20061;-75
2022/05/12 01:37:00;;;;;;;3.58;1.70;;;;;;;;;;4987545;28;20078;-74
2022/05/12 01:39:25;;;;;;;2.75;1.67;;;;;;;;;;4987407;28;20053;-75
2022/05/12 01:41:51;;;;;;;4.05;1.70;;;;;;;;;;4989343;28;20030;-74
2022/05/12 01:44:16;;;;;;;6.00;1.70;;;;;;;;;;4990617;28;20037;-73
2022/05/12 01:46:41;;;;;;;5.07;1.85;;;;;;;;;;4987504;28;20038;-76
2022/05/12 01:49:07;;;;;;;2.13;1.10;;;;;;;;;;4988663;28;20034;-74
2022/05/12 01:51:35;;;;;;;5.85;1.80;;;;;;;;;;4989229;28;20426;-76
2022/05/12 01:54:00;;;;;;;5.57;1.65;;;;;;;;;;4985535;28;20115;-75
2022/05/12 01:56:26;;;;;;;3.72;1.58;;;;;;;;;;4987654;28;20066;-75
2022/05/12 01:58:51;;;;;;;5.97;1.70;;;;;;;;;;5003358;28;20071;-76
2022/05/12 02:01:17;;;;;;;2.22;1.73;;;;;;;;;;4987598;28;20043;-75
2022/05/12 02:03:42;;;;;;;4.30;1.65;;;;;;;;;;4983942;28;20034;-75
2022/05/12 02:06:08;;;;;;;4.60;2.00;;;;;;;;;;4987842;28;21246;-76
2022/05/12 02:08:33;;;;;;;6.47;1.83;;;;;;;;;;4989978;28;20045;-74
2022/05/12 02:10:58;;;;;;;6.50;1.60;;;;;;;;;;4988051;28;20109;-76
2022/05/12 02:13:27;;;;;;;5.07;1.80;;;;;;;;;;4987248;28;20058;-76
2022/05/12 02:15:55;;;;;;;3.85;1.88;;;;;;;;;;4986920;28;20026;-75
2022/05/12 02:18:21;;;;;;;8.10;1.98;;;;;;;;;;4983901;28;20113;-75
2022/05/12 02:20:47;;;;;;;4.10;1.60;;;;;;;;;;4987947;28;20454;-75
2022/05/12 02:23:13;;;;;;;5.53;1.75;;;;;;;;;;4986809;28;20078;-75
2022/05/12 02:25:38;;;;;;;3.67;1.58;;;;;;;;;;4989412;28;20050;-75
2022/05/12 02:28:04;;;;;;;1.80;1.52;;;;;;;;;;4988275;28;20047;-75
2022/05/12 02:30:31;;;;;;;3.80;1.73;;;;;;;;;;4983287;28;20058;-75
2022/05/12 02:32:57;;;;;;;2.95;1.77;;;;;;;;;;4984991;28;20402;-75
2022/05/12 02:35:23;;;;;;;4.25;1.60;;;;;;;;;;4988104;28;20030;-74
2022/05/12 02:37:49;;;;;;;3.08;1.33;;;;;;;;;;4989305;28;20050;-75
2022/05/12 02:40:20;;;;;;;2.88;1.40;;;;;;;;;;4987785;28;20077;-74
2022/05/12 02:42:45;;;;;;;4.45;1.25;;;;;;;;;;4991159;28;20058;-75
2022/05/12 02:45:11;;;;;;;1.55;1.38;;;;;;;;;;4987128;28;20074;-75
2022/05/12 02:47:37;;;;;;;1.20;1.00;;;;;;;;;;4990082;28;20022;-75
2022/05/12 02:50:03;;;;;;;4.57;1.35;;;;;;;;;;4987632;28;20093;-75
2022/05/12 02:52:29;;;;;;;5.10;1.40;;;;;;;;;;4989720;28;20038;-75
2022/05/12 02:54:54;;;;;;;2.30;1.10;;;;;;;;;;4987139;28;20112;-75
2022/05/12 02:57:21;;;;;;;6.20;1.20;;;;;;;;;;4988982;28;20042;-75
2022/05/12 02:59:46;;;;;;;4.88;1.38;;;;;;;;;;4988698;28;20076;-74
2022/05/12 03:02:11;;;;;;;3.45;1.20;;;;;;;;;;4987153;28;20029;-74
2022/05/12 03:04:37;;;;;;;2.78;1.30;;;;;;;;;;4989532;28;20043;-75
2022/05/12 03:07:03;;;;;;;6.03;1.50;;;;;;;;;;4989578;28;20514;-75
2022/05/12 03:09:28;;;;;;;2.13;1.27;;;;;;;;;;4988955;28;20180;-74
2022/05/12 03:11:54;;;;;;;2.35;1.15;;;;;;;;;;4987378;28;20204;-74
2022/05/12 03:14:19;;;;;;;2.08;1.40;;;;;;;;;;4988234;28;20030;-75
2022/05/12 03:16:45;;;;;;;2.53;1.30;;;;;;;;;;4988299;28;20497;-75
2022/05/12 03:19:10;;;;;;;5.05;1.35;;;;;;;;;;4986349;28;20039;-74
2022/05/12 03:21:36;;;;;;;2.35;1.33;;;;;;;;;;4988527;28;20113;-74
2022/05/12 03:24:04;;;;;;;4.00;1.25;;;;;;;;;;4988383;28;20152;-75
2022/05/12 03:26:30;;;;;;;2.35;1.40;;;;;;;;;;4990484;28;20104;-75
2022/05/12 03:28:55;;;;;;;2.45;1.20;;;;;;;;;;4986628;28;20398;-75
2022/05/12 03:31:21;;;;;;;1.73;1.08;;;;;;;;;;4989679;28;20034;-74
2022/05/12 03:33:46;;;;;;;4.13;1.27;;;;;;;;;;4984222;28;20557;-75
2022/05/12 03:36:12;;;;;;;3.80;1.27;;;;;;;;;;4987607;28;20046;-74
2022/05/12 03:38:38;;;;;;;4.95;1.42;;;;;;;;;;4988681;28;20486;-75
2022/05/12 03:41:05;;;;;;;4.43;1.42;;;;;;;;;;4986135;28;20402;-75
2022/05/12 03:46:15;;;;;;;3.97;1.70;;;;;;;;;;4986860;28;20068;-75
2022/05/12 03:48:41;;;;;;;3.67;1.45;;;;;;;;;;4989624;28;20030;-76
2022/05/12 03:51:08;;;;;;;2.20;1.02;;;;;;;;;;4992024;28;20041;-75
2022/05/12 03:53:35;;;;;;;6.47;1.25;;;;;;;;;;4992935;28;20030;-75
2022/05/12 03:56:01;;;;;;;2.75;1.25;;;;;;;;;;4991214;28;20120;-76
2022/05/12 03:58:27;;;;;;;8.82;2.13;;;;;;;;;;4989312;28;20058;-74
2022/05/12 04:00:53;;;;;;;3.90;1.85;;;;;;;;;;4991649;28;20065;-74
2022/05/12 04:03:19;;;;;;;6.30;1.60;;;;;;;;;;4990873;28;20045;-74
2022/05/12 04:05:45;;;;;;;5.30;1.60;;;;;;;;;;4993298;28;20030;-74
2022/05/12 04:08:10;;;;;;;4.05;1.50;;;;;;;;;;4993862;28;20034;-74
2022/05/12 04:10:36;;;;;;;6.75;1.77;;;;;;;;;;4990823;28;20038;-75
2022/05/12 04:13:02;;;;;;;5.57;1.48;;;;;;;;;;4991657;28;20034;-75
2022/05/12 04:15:28;;;;;;;5.90;1.45;;;;;;;;;;4991755;28;20449;-75
2022/05/12 04:17:58;;;;;;;6.47;1.33;;;;;;;;;;4989630;28;20470;-76
2022/05/12 04:20:25;;;;;;;5.40;1.33;;;;;;;;;;4992512;28;20030;-75
2022/05/12 04:22:50;;;;;;;5.43;1.30;;;;;;;;;;4992932;28;20564;-74
2022/05/12 04:25:16;;;;;;;3.00;1.30;;;;;;;;;;4989776;28;20680;-73
2022/05/12 04:27:42;;;;;;;9.02;1.65;;;;;;;;;;4992033;28;20550;-74
2022/05/12 04:30:11;;;;;;;8.23;1.98;;;;;;;;;;4991832;28;20656;-74
2022/05/12 04:32:37;;;;;;;5.35;1.42;;;;;;;;;;4993956;28;20098;-74
2022/05/12 04:35:15;;;;;;;9.63;1.60;;;;;;;;;;4989497;28;20141;-76
2022/05/12 04:37:53;;;;;;;17.65;2.03;;;;;;;;;;4991985;28;20137;-74
2022/05/12 04:40:27;;;;;;;5.90;1.60;;;;;;;;;;4988739;28;20045;-75
2022/05/12 04:42:54;;;;;;;4.20;1.67;;;;;;;;;;4993071;28;20066;-75
2022/05/12 04:45:21;;;;;;;3.85;1.27;;;;;;;;;;4991175;28;20038;-76
2022/05/12 04:47:47;;;;;;;6.45;1.73;;;;;;;;;;4991686;28;20038;-74
2022/05/12 04:50:17;;;;;;;6.20;1.13;;;;;;;;;;4990940;28;20034;-75
2022/05/12 04:52:43;;;;;;;4.93;1.10;;;;;;;;;;4994332;28;20038;-74
2022/05/12 04:55:10;;;;;;;4.07;1.10;;;;;;;;;;4990231;28;20065;-75
2022/05/12 04:57:39;;;;;;;3.10;1.10;;;;;;;;;;4991497;28;20566;-75
2022/05/12 05:00:07;;;;;;;6.38;0.90;;;;;;;;;;4990292;28;20522;-75
2022/05/12 05:02:33;;;;;;;2.10;0.90;;;;;;;;;;4992550;28;20038;-75
2022/05/12 05:04:58;;;;;;;4.93;1.13;;;;;;;;;;4992228;28;20035;-76
2022/05/12 05:07:26;;;;;;;2.90;0.98;;;;;;;;;;4992014;28;20035;-75
2022/05/12 05:09:51;;;;;;;3.47;0.98;;;;;;;;;;4991045;28;20037;-75
2022/05/12 05:12:17;;;;;;;4.28;0.77;;;;;;;;;;4991003;28;20129;-75
2022/05/12 05:14:42;;;;;;;1.80;0.80;;;;;;;;;;4992645;28;20099;-74
2022/05/12 05:17:07;;;;;;;3.08;0.75;;;;;;;;;;5007008;28;20041;-75
2022/05/12 05:19:33;;;;;;;4.53;0.98;;;;;;;;;;4992170;28;20041;-75
2022/05/12 05:21:58;;;;;;;2.08;0.70;;;;;;;;;;4991112;28;20092;-75
2022/05/12 05:24:24;;;;;;;3.30;0.77;;;;;;;;;;4991139;28;20525;-75
2022/05/12 05:26:49;;;;;;;1.75;0.90;;;;;;;;;;4991382;28;20383;-75
2022/05/12 05:29:15;;;;;;;3.03;0.95;;;;;;;;;;4990668;28;20037;-75
2022/05/12 05:31:40;;;;;;;4.53;0.73;;;;;;;;;;4991279;28;20546;-74
2022/05/12 05:34:08;;;;;;;4.93;0.90;;;;;;;;;;4991792;28;20320;-74
2022/05/12 05:36:33;;;;;;;6.60;1.30;;;;;;;;;;4990400;28;20326;-76
2022/05/12 05:38:59;;;;;;;2.78;1.00;;;;;;;;;;4991829;28;20101;-75
2022/05/12 05:41:24;;;;;;;2.78;0.90;;;;;;;;;;4990133;28;20030;-75
2022/05/12 05:43:50;;;;;;;2.67;0.93;;;;;;;;;;4987723;28;20036;-75
2022/05/12 05:46:16;;;;;;;2.88;0.82;;;;;;;;;;5010332;28;20031;-75
2022/05/12 05:48:43;;;;;;;5.65;1.00;;;;;;;;;;4989706;28;20038;-75
2022/05/12 05:53:54;;;;;;;1.90;0.85;;;;;;;;;;4988757;28;20049;-75
2022/05/12 05:56:20;;;;;;;3.05;0.82;;;;;;;;;;4991485;28;20065;-74
2022/05/12 05:58:45;;;;;;;3.92;0.80;;;;;;;;;;4990167;28;20054;-75
2022/05/12 06:01:12;;;;;;;2.88;0.70;;;;;;;;;;4991088;28;20045;-75
2022/05/12 06:03:39;;;;;;;4.63;1.02;;;;;;;;;;4986537;28;20498;-75
2022/05/12 06:06:05;;;;;;;1.58;0.77;;;;;;;;;;4990829;28;20038;-74
2022/05/12 06:08:31;;;;;;;2.55;1.00;;;;;;;;;;4993399;28;20482;-75
2022/05/12 06:11:00;;;;;;;7.50;1.02;;;;;;;;;;4988651;28;20038;-75
2022/05/12 06:13:25;;;;;;;4.35;1.00;;;;;;;;;;4990963;28;20041;-75
2022/05/12 06:15:51;;;;;;;3.95;0.93;;;;;;;;;;4988646;28;20030;-75
2022/05/12 06:18:18;;;;;;;4.35;1.00;;;;;;;;;;4990345;28;20043;-75
2022/05/12 06:20:47;;;;;;;2.75;0.88;;;;;;;;;;4989850;28;20371;-75
2022/05/12 06:23:14;;;;;;;5.70;1.20;;;;;;;;;;4989806;28;20029;-75
2022/05/12 06:25:39;;;;;;;3.00;1.20;;;;;;;;;;4987713;28;20569;-75
2022/05/12 06:28:06;;;;;;;4.30;1.17;;;;;;;;;;4988815;28;20130;-74
2022/05/12 06:30:32;;;;;;;3.38;0.90;;;;;;;;;;4987871;28;20030;-74
2022/05/12 06:32:58;;;;;;;4.43;1.08;;;;;;;;;;4990574;28;20443;-73
2022/05/12 06:35:25;;;;;;;3.75;0.75;;;;;;;;;;4988221;28;20390;-75
2022/05/12 06:37:51;;;;;;;4.30;0.80;;;;;;;;;;4988690;28;20061;-73
2022/05/12 06:40:18;;;;;;;7.38;0.90;;;;;;;;;;4989002;28;20042;-74
2022/05/12 06:42:44;;;;;;;5.65;1.10;;;;;;;;;;4986928;28;20129;-74
2022/05/12 06:45:14;;;;;;;2.97;0.73;;;;;;;;;;4987709;28;20034;-74
2022/05/12 06:47:48;;;;;;;3.20;0.85;;;;;;;;;;4990620;28;20481;-74
2022/05/12 06:50:21;;;;;;;3.10;0.88;;;;;;;;;;4988138;28;20494;-75
2022/05/12 06:52:47;;;;;;;1.98;0.90;;;;;;;;;;4987685;28;20043;-73
2022/05/12 06:55:13;;;;;;;5.45;1.00;;;;;;;;;;4986188;28;20469;-74
2022/05/12 06:57:39;;;;;;;3.15;0.77;;;;;;;;;;4988885;28;20620;-73
2022/05/12 07:00:06;;;;;;;3.53;1.10;;;;;;;;;;4989845;28;20134;-74
2022/05/12 07:02:31;;;;;;;2.13;0.80;;;;;;;;;;4989649;28;20022;-74
2022/05/12 07:04:57;;;;;;;6.65;1.00;;;;;;;;;;4987847;28;20520;-74
2022/05/12 07:07:22;;;;;;;4.05;1.10;;;;;;;;;;4988179;28;20042;-74
2022/05/12 07:09:52;;;;;;;4.63;1.23;;;;;;;;;;4988311;28;20414;-75
2022/05/12 07:12:18;;;;;;;5.32;1.20;;;;;;;;;;4986475;28;20391;-75
2022/05/12 07:14:43;;;;;;;4.80;0.98;;;;;;;;;;4989939;28;20037;-74
2022/05/12 07:17:08;;;;;;;3.47;1.10;;;;;;;;;;4989220;28;20029;-74
2022/05/12 07:19:34;;;;;;;2.22;1.05;;;;;;;;;;4991170;28;20109;-73
2022/05/12 07:27:28;;;;;;;2.90;0.93;;;;;;;;;;4991685;28;20576;-73
2022/05/12 07:29:53;;;;;;;9.20;1.05;;;;;;;;;;4993145;28;20034;-73
2022/05/12 07:32:19;;;;;;;3.97;1.10;;;;;;;;;;4991321;28;20038;-74
2022/05/12 07:34:44;;;;;;;3.55;0.90;;;;;;;;;;4990908;28;20402;-74
2022/05/12 07:37:10;;;;;;;3.60;0.90;;;;;;;;;;4990841;28;20069;-73
2022/05/12 07:39:36;;;;;;;5.30;1.00;;;;;;;;;;4992499;28;20046;-74
2022/05/12 07:42:03;;;;;;;3.60;1.02;;;;;;;;;;4986338;28;20085;-74
2022/05/12 07:44:32;;;;;;;5.13;1.00;;;;;;;;;;4991456;28;20064;-74
2022/05/12 07:47:00;;;;;;;3.08;1.00;;;;;;;;;;4990849;28;20034;-74
2022/05/12 07:49:28;;;;;;;3.63;0.95;;;;;;;;;;4991436;28;20410;-74
2022/05/12 07:51:54;;;;;;;2.50;1.02;;;;;;;;;;4990679;28;20035;-74
2022/05/12 07:54:20;;;;;;;3.42;1.08;;;;;;;;;;4991887;28;20039;-73
2022/05/12 07:56:46;;;;;;;1.50;0.68;;;;;;;;;;4991666;28;20029;-74
2022/05/12 07:59:11;;;;;;;2.15;0.90;;;;;;;;;;4990988;28;20158;-75
2022/05/12 08:01:38;;;;;;;3.55;0.95;;;;;;;;;;4989501;28;20044;-74
2022/05/12 08:04:03;;;;;;;1.98;1.05;;;;;;;;;;4990928;28;20046;-74
2022/05/12 08:06:29;;;;;;;5.82;0.88;;;;;;;;;;5005503;28;20048;-74
2022/05/12 08:08:55;;;;;;;1.63;0.63;;;;;;;;;;4991199;28;20034;-73
2022/05/12 08:11:20;;;;;;;3.40;1.20;;;;;;;;;;4990839;28;20042;-74
2022/05/12 08:13:47;;;;;;;3.15;0.82;;;;;;;;;;4990533;28;20410;-74
2022/05/12 08:16:17;;;;;;;2.90;0.73;;;;;;;;;;4990435;28;20494;-74
2022/05/12 08:18:45;;;;;;;3.50;0.88;;;;;;;;;;4990418;28;20049;-73
2022/05/12 08:21:11;;;;;;;3.53;0.77;;;;;;;;;;4989447;28;20038;-73
2022/05/12 08:23:37;;;;;;;1.77;0.80;;;;;;;;;;4990328;28;20018;-74
2022/05/12 08:26:02;;;;;;;4.05;0.80;;;;;;;;;;4990577;28;20091;-74
2022/05/12 08:28:28;;;;;;;4.63;0.98;;;;;;;;;;4990066;28;20451;-74
2022/05/12 08:30:54;;;;;;;8.23;0.90;;;;;;;;;;4989880;28;20389;-74
2022/05/12 08:33:20;;;;;;;5.10;0.80;;;;;;;;;;4991274;28;20092;-74
2022/05/12 08:35:46;;;;;;;3.40;1.00;;;;;;;;;;4995317;28;20026;-74
2022/05/12 08:38:13;;;;;;;3.00;0.82;;;;;;;;;;4993499;28;20448;-74
2022/05/12 08:41:03;;;;;;;3.60;1.02;;;;;;;;;;4991629;28;20051;-74
2022/05/12 08:43:40;;;;;;;4.50;1.10;;;;;;;;;;4991605;28;20073;-74
2022/05/12 08:46:10;;;;;;;3.10;0.80;;;;;;;;;;4992943;28;20065;-74
2022/05/12 08:48:41;;;;;;;5.40;1.20;;;;;;;;;;4992541;28;20451;-73
2022/05/12 08:51:11;;;;;;;3.83;0.90;;;;;;;;;;4990151;28;20070;-75
2022/05/12 08:53:48;;;;;;;1.88;0.73;;;;;;;;;;4990364;28;20064;-74
2022/05/12 08:56:17;;;;;;;2.55;0.90;;;;;;;;;;4987369;28;20042;-73
2022/05/12 08:58:42;;;;;;;1.95;0.80;;;;;;;;;;4985382;28;20403;-74
2022/05/12 09:01:19;;;;;;;2.85;0.90;;;;;;;;;;5007836;28;20038;-74
2022/05/12 09:04:10;;;;;;;3.55;1.83;;;;;;;;;;4993403;28;20525;-73
2022/05/12 09:07:07;;;;;;;0.80;0.60;;;;;;;;;;4990275;28;20026;-72
2022/05/12 09:09:48;;;;;;;4.70;1.00;;;;;;;;;;4991821;28;20486;-74
2022/05/12 09:12:51;;;;;;;1.92;0.77;;;;;;;;;;4989566;28;20502;-74
2022/05/12 09:15:24;;;;;;;3.70;0.90;;;;;;;;;;4989442;28;20038;-74
2022/05/12 09:17:56;;;;;;;4.03;0.82;;;;;;;;;;4990123;28;20032;-74
2022/05/12 09:20:24;;;;;;;2.87;0.70;;;;;;;;;;4993613;28;20104;-73
2022/05/12 09:22:49;;;;;;;3.38;0.80;;;;;;;;;;4987704;28;20525;-74
2022/05/12 09:25:29;;;;;;;2.28;0.73;;;;;;;;;;4990753;28;20046;-74
2022/05/12 09:27:58;;;;;;;3.33;0.82;;;;;;;;;;4992244;28;20030;-73
2022/05/12 09:30:32;;;;;;;2.47;0.60;;;;;;;;;;4989977;28;20038;-74
2022/05/12 09:32:58;;;;;;;3.83;0.70;;;;;;;;;;4992476;28;20450;-73
2022/05/12 09:35:25;;;;;;;3.17;0.85;;;;;;;;;;4991025;28;20359;-73
2022/05/12 09:37:53;;;;;;;2.17;0.70;;;;;;;;;;4990732;28;20039;-73
2022/05/12 09:40:34;;;;;;;1.85;0.60;;;;;;;;;;4990948;28;20062;-73
2022/05/12 09:43:24;;;;;;;5.45;0.68;;;;;;;;;;4990185;28;20037;-73
2022/05/12 09:46:06;;;;;;;2.92;0.93;;;;;;;;;;4988228;28;20034;-74
2022/05/12 09:48:36;;;;;;;2.63;0.57;;;;;;;;;;4992356;28;20525;-74
2022/05/12 09:51:22;;;;;;;3.70;0.90;;;;;;;;;;4992165;28;20042;-73
2022/05/12 09:53:53;;;;;;;5.00;0.98;;;;;;;;;;4992121;28;20110;-74
2022/05/12 09:56:34;;;;;;;2.05;0.70;;;;;;;;;;4992973;28;20030;-72
2022/05/12 09:59:15;;;;;;;1.88;0.80;;;;;;;;;;4991040;28;20043;-72
2022/05/12 10:02:04;;;;;;;1.75;0.57;;;;;;;;;;4992395;28;20529;-73
2022/05/12 10:10:02;;;;;;;1.60;0.65;;;;;;;;;;4992978;28;20108;-74
2022/05/12 10:12:41;;;;;;;2.55;0.63;;;;;;;;;;4990368;28;20039;-75
2022/05/12 10:15:32;;;;;;;2.10;0.75;;;;;;;;;;4992999;28;20037;-74
2022/05/12 10:18:24;;;;;;;2.17;0.90;;;;;;;;;;4987703;28;20457;-74
2022/05/12 10:20:53;;;;;;;3.33;1.03;;;;;;;;;;4989930;28;20050;-74
2022/05/12 10:23:30;;;;;;;2.63;0.82;;;;;;;;;;4991430;28;20045;-75
2022/05/12 10:26:00;;;;;;;3.20;0.80;;;;;;;;;;4984995;28;20042;-74
2022/05/12 10:28:53;;;;;;;2.00;0.60;;;;;;;;;;4985892;28;20054;-74
2022/05/12 10:31:51;;;;;;;2.45;0.60;;;;;;;;;;4989897;28;20061;-74
2022/05/12 10:34:26;;;;;;;1.67;0.80;;;;;;;;;;4988902;28;20042;-72
2022/05/12 10:37:19;;;;;;;1.80;0.60;;;;;;;;;;4988289;28;20038;-72
2022/05/12 10:40:02;;;;;;;3.35;0.70;;;;;;;;;;4990744;28;20046;-74
2022/05/12 10:42:49;;;;;;;2.38;0.60;;;;;;;;;;4989110;28;20568;-73
2022/05/12 10:45:22;;;;;;;2.72;0.70;;;;;;;;;;4988661;28;20398;-75
2022/05/12 10:48:11;;;;;;;2.85;0.68;;;;;;;;;;4989437;28;20023;-74
2022/05/12 10:50:48;;;;;;;1.60;0.70;;;;;;;;;;4991059;28;20042;-73
2022/05/12 10:53:28;;;;;;;3.13;0.80;;;;;;;;;;5002148;28;20042;-74
2022/05/12 10:56:12;;;;;;;2.85;0.68;;;;;;;;;;4987378;28;20126;-74
2022/05/12 10:58:38;;;;;;;2.63;0.70;;;;;;;;;;4986807;28;20042;-73
2022/05/12 11:01:16;;;;;;;0.73;0.52;;;;;;;;;;4989678;28;20121;-72
2022/05/12 11:03:50;;;;;;;3.83;0.80;;;;;;;;;;4990483;28;20034;-74
2022/05/12 11:06:21;;;;;;;2.17;0.73;;;;;;;;;;4986883;28;20109;-74
2022/05/12 11:08:51;;;;;;;1.65;0.60;;;;;;;;;;4989390;28;20474;-74
2022/05/12 11:11:23;;;;;;;2.42;0.70;;;;;;;;;;4987450;28;20398;-75
2022/05/12 11:14:00;;;;;;;2.92;0.70;;;;;;;;;;4986288;28;20057;-75
2022/05/12 11:16:48;;;;;;;1.42;0.63;;;;;;;;;;5012754;28;20042;-73
2022/05/12 11:19:24;;;;;;;5.32;0.90;;;;;;;;;;4990134;28;20113;-74
2022/05/12 11:22:32;;;;;;;2.78;0.60;;;;;;;;;;4989015;28;20041;-72
2022/05/12 11:25:05;;;;;;;2.08;0.70;;;;;;;;;;4990462;28;20044;-72
2022/05/12 11:27:44;;;;;;;1.30;0.95;;;;;;;;;;4989508;28;20096;-73
2022/05/12 11:30:34;;;;;;;1.67;0.63;;;;;;;;;;4988008;28;20068;-75
2022/05/12 11:33:08;;;;;;;2.50;0.65;;;;;;;;;;4989697;28;20444;-74
2022/05/12 11:35:43;;;;;;;2.97;0.65;;;;;;;;;;4985853;28;20026;-76
2022/05/12 11:38:37;;;;;;;2.50;0.60;;;;;;;;;;4983351;28;20070;-75
2022/05/12 11:41:04;;;;;;;3.05;1.10;;;;;;;;;;4987601;28;20030;-74
2022/05/12 11:46:47;;;;;;;5.32;0.88;;;;;;;;;;4987119;28;20049;-74
2022/05/12 11:49:37;;;;;;;2.47;0.65;;;;;;;;;;4987013;28;20568;-73
2022/05/12 11:52:24;;;;;;;2.13;0.70;;;;;;;;;;4988431;28;20038;-74
2022/05/12 11:54:59;;;;;;;5.18;0.70;;;;;;;;;;4984917;28;20398;-73
2022/05/12 11:57:35;;;;;;;3.78;0.70;;;;;;;;;;4976583;28;20038;-72
2022/05/12 12:00:08;;;;;;;1.70;0.60;;;;;;;;;;4986625;28;20125;-74
2022/05/12 12:02:35;;;;;;;3.42;0.80;;;;;;;;;;4989058;28;21620;-74
2022/05/12 12:05:05;;;;;;;8.07;0.90;;;;;;;;;;4988373;28;20053;-73
2022/05/12 12:07:30;;;;;;;2.50;0.70;;;;;;;;;;4983946;28;20411;-74
2022/05/12 12:10:15;;;;;;;3.70;0.60;;;;;;;;;;4985864;28;20030;-72
2022/05/12 12:12:40;;;;;;;2.47;0.70;;;;;;;;;;4996437;28;20050;-74
2022/05/12 12:15:08;;;;;;;4.00;0.50;;;;;;;;;;4991903;28;20038;-73
2022/05/12 12:17:40;;;;;;;3.00;0.70;;;;;;;;;;4984326;28;20092;-72
2022/05/12 12:20:09;;;;;;;3.50;1.10;;;;;;;;;;4992065;28;20594;-73
2022/05/12 12:22:37;;;;;;;2.67;1.00;;;;;;;;;;4994344;28;20588;-75
2022/05/12 12:25:08;;;;;;;5.32;1.00;;;;;;;;;;4993899;28;20031;-74
2022/05/12 12:27:46;;;;;;;7.20;1.35;;;;;;;;;;4994653;28;20498;-74
2022/05/12 12:30:21;;;;;;;2.95;0.70;;;;;;;;;;4991650;28;20060;-73
2022/05/12 12:33:20;;;;;;;1.58;0.57;;;;;;;;;;5011136;28;20066;-73
2022/05/12 12:36:07;;;;;;;2.78;0.90;;;;;;;;;;4992022;28;20030;-73
2022/05/12 12:38:44;;;;;;;5.88;0.80;;;;;;;;;;4996156;28;20050;-73
2022/05/12 12:41:31;;;;;;;1.15;0.60;;;;;;;;;;4994708;28;20506;-71
2022/05/12 12:44:03;;;;;;;6.05;0.90;;;;;;;;;;4996487;28;20038;-73
2022/05/12 12:47:02;;;;;;;2.63;0.73;;;;;;;;;;4997499;28;20030;-72
2022/05/12 12:49:42;;;;;;;2.97;0.73;;;;;;;;;;4992886;28;20050;-72
2022/05/12 12:52:10;;;;;;;2.70;0.90;;;;;;;;;;4984968;28;20096;-72
2022/05/12 12:57:23;;;;;;;3.92;1.00;;;;;;;;;;4991995;28;20558;-71
2022/05/12 12:59:50;;;;;;;1.85;0.77;;;;;;;;;;4992420;28;20402;-73
2022/05/12 13:02:28;;;;;;;2.53;0.80;;;;;;;;;;4991576;28;20053;-74
2022/05/12 13:04:56;;;;;;;1.58;0.90;;;;;;;;;;4993114;28;22649;-74
2022/05/12 13:07:30;;;;;;;2.72;1.05;;;;;;;;;;4990429;28;20471;-72
2022/05/12 13:09:57;;;;;;;2.40;0.70;;;;;;;;;;4991035;28;20039;-72
2022/05/12 13:12:26;;;;;;;5.20;0.90;;;;;;;;;;4992557;28;20034;-73
2022/05/12 13:14:54;;;;;;;1.65;0.70;;;;;;;;;;4990447;28;20038;-72
2022/05/12 13:17:36;;;;;;;1.75;0.68;;;;;;;;;;4990499;28;20546;-73
2022/05/12 13:20:04;;;;;;;3.58;0.70;;;;;;;;;;4988869;28;20447;-73
2022/05/12 13:22:34;;;;;;;1.38;0.75;;;;;;;;;;4990804;28;20037;-75
2022/05/12 13:24:59;;;;;;;3.95;0.70;;;;;;;;;;4988450;28;20108;-73
2022/05/12 13:27:35;;;;;;;2.95;0.88;;;;;;;;;;4989362;28;20050;-73
2022/05/12 13:30:01;;;;;;;4.45;1.05;;;;;;;;;;4992613;28;20034;-73
2022/05/12 13:32:43;;;;;;;1.88;0.85;;;;;;;;;;4991480;28;20043;-71
2022/05/12 13:35:17;;;;;;;1.58;0.70;;;;;;;;;;4992272;28;20439;-73
2022/05/12 13:38:03;;;;;;;1.45;0.75;;;;;;;;;;4994566;28;20018;-73
2022/05/12 13:40:55;;;;;;;2.75;0.75;;;;;;;;;;4991875;28;20034;-72
2022/05/12 13:43:30;;;;;;;3.33;0.77;;;;;;;;;;4992127;28;20614;-71
2022/05/12 13:46:03;;;;;;;2.45;0.60;;;;;;;;;;4990767;28;20042;-71
2022/05/12 13:48:29;;;;;;;6.38;1.00;;;;;;;;;;4993423;28;20072;-72
2022/05/12 13:50:56;;;;;;;3.63;1.00;;;;;;;;;;4992349;28;20125;-72
2022/05/12 13:53:33;;;;;;;2.67;0.93;;;;;;;;;;4992047;28;20080;-72
2022/05/12 13:56:22;;;;;;;1.92;0.70;;;;;;;;;;4989892;28;20115;-72
2022/05/12 13:58:51;;;;;;;5.15;0.90;;;;;;;;;;4988202;28;20415;-72
2022/05/12 14:01:32;;;;;;;5.05;0.77;;;;;;;;;;4991174;28;20497;-74
2022/05/12 14:04:23;;;;;;;2.88;0.80;;;;;;;;;;4991209;28;20193;-73
2022/05/12 14:06:55;;;;;;;3.53;0.90;;;;;;;;;;4990135;28;20410;-74
2022/05/12 14:09:27;;;;;;;5.75;0.75;;;;;;;;;;4983605;28;20042;-72
2022/05/12 14:11:59;;;;;;;4.43;1.00;;;;;;;;;;4990893;28;20034;-72
2022/05/12 14:20:06;;;;;;;3.58;0.80;;;;;;;;;;4991999;28;20141;-72
2022/05/12 14:22:31;;;;;;;2.30;0.80;;;;;;;;;;4985094;28;20035;-71
2022/05/12 14:24:57;;;;;;;2.92;0.90;;;;;;;;;;4990658;28;20043;-72
2022/05/12 14:27:22;;;;;;;3.50;0.80;;;;;;;;;;4989710;28;20039;-73
2022/05/12 14:29:48;;;;;;;2.60;0.70;;;;;;;;;;4990134;28;20131;-71
2022/05/12 14:32:15;;;;;;;3.13;0.88;;;;;;;;;;4990913;28;20038;-74
2022/05/12 14:34:44;;;;;;;1.85;0.90;;;;;;;;;;4990883;28;20068;-71
2022/05/12 14:37:09;;;;;;;2.92;1.02;;;;;;;;;;4991578;28;20072;-72
2022/05/12 14:39:35;;;;;;;3.50;0.77;;;;;;;;;;4990035;28;20038;-73
2022/05/12 14:42:01;;;;;;;3.22;0.98;;;;;;;;;;4990914;28;20026;-73
2022/05/12 14:44:27;;;;;;;3.90;0.80;;;;;;;;;;4990576;28;20054;-72
2022/05/12 14:46:56;;;;;;;3.85;1.00;;;;;;;;;;4990435;28;20085;-73
2022/05/12 14:49:34;;;;;;;2.28;0.85;;;;;;;;;;4990328;28;20117;-72
2022/05/12 14:52:02;;;;;;;4.60;0.60;;;;;;;;;;4992615;28;20037;-72
2022/05/12 14:54:29;;;;;;;2.10;0.75;;;;;;;;;;4990117;28;21653;-71
2022/05/12 14:56:56;;;;;;;2.55;0.80;;;;;;;;;;4990106;28;20034;-71
2022/05/12 14:59:24;;;;;;;1.92;0.80;;;;;;;;;;4990990;28;20042;-71
2022/05/12 15:01:51;;;;;;;2.30;0.77;;;;;;;;;;4988860;28;20042;-73
2022/05/12 15:04:16;;;;;;;2.55;0.90;;;;;;;;;;4990065;28;20585;-73
2022/05/12 15:06:42;;;;;;;8.20;0.90;;;;;;;;;;4990249;28;20058;-72
2022/05/12 15:09:08;;;;;;;3.45;0.80;;;;;;;;;;4990088;28;20022;-72
2022/05/12 15:11:34;;;;;;;2.45;0.80;;;;;;;;;;4990701;28;20026;-72
2022/05/12 15:13:59;;;;;;;1.45;0.75;;;;;;;;;;4989891;28;20046;-72
2022/05/12 15:16:28;;;;;;;2.70;0.63;;;;;;;;;;4990460;28;20510;-71
2022/05/12 15:18:53;;;;;;;2.10;0.57;;;;;;;;;;4990000;28;20122;-72
2022/05/12 15:21:19;;;;;;;3.58;1.08;;;;;;;;;;4989427;28;20180;-73
2022/05/12 15:23:45;;;;;;;1.65;0.85;;;;;;;;;;4991126;28;20037;-73
2022/05/12 15:26:13;;;;;;;4.45;1.02;;;;;;;;;;4988552;28;20057;-73
2022/05/12 15:28:39;;;;;;;4.30;0.73;;;;;;;;;;4988515;28;20034;-72